sensor_id;sensor_type;location;lat;lon;timestamp;pressure;altitude;pressure_sealevel;temperature;humidity
30967;BME280;17649;51.836;8.330;2023-12-20T00:02:32;100736.47;;;7.92;100.00
30967;BME280;17649;51.836;8.330;2023-12-20T00:05:32;100742.97;;;7.81;100.00
30967;BME280;17649;51.836;8.330;2023-12-20T00:08:33;100744.06;;;7.75;100.00
30967;BME280;17649;51.836;8.330;2023-12-20T00:11:33;100752.94;;;7.88;100.00
30967;BME280;17649;51.836;8.330;2023-12-20T00:14:34;100759.91;;;7.66;100.00
30967;BME280;17649;51.836;8.330;2023-12-20T00:17:34;100757.38;;;7.64;100.00
30967;BME280;17649;51.836;8.330;2023-12-20T00:20:35;100751.13;;;7.70;100.00
30967;BME280;17649;51.836;8.330;2023-12-20T00:23:35;100748.56;;;7.70;100.00
30967;BME280;17649;51.836;8.330;2023-12-20T00:26:36;100763.50;;;7.62;100.00
30967;BME280;17649;51.836;8.330;2023-12-20T00:29:36;100760.16;;;7.60;100.00
30967;BME280;17649;51.836;8.330;2023-12-20T00:32:36;100755.72;;;7.41;100.00
30967;BME280;17649;51.836;8.330;2023-12-20T00:35:37;100771.16;;;7.41;100.00
30967;BME280;17649;51.836;8.330;2023-12-20T00:38:37;100776.94;;;7.48;100.00
30967;BME280;17649;51.836;8.330;2023-12-20T00:41:37;100769.75;;;7.34;100.00
30967;BME280;17649;51.836;8.330;2023-12-20T00:44:38;100778.66;;;7.47;100.00
30967;BME280;17649;51.836;8.330;2023-12-20T00:47:38;100775.47;;;7.41;100.00
30967;BME280;17649;51.836;8.330;2023-12-20T00:50:38;100770.16;;;7.45;100.00
30967;BME280;17649;51.836;8.330;2023-12-20T00:53:39;100774.91;;;7.34;100.00
30967;BME280;17649;51.836;8.330;2023-12-20T00:56:39;100769.25;;;7.25;100.00
30967;BME280;17649;51.836;8.330;2023-12-20T00:59:39;100772.66;;;7.25;100.00
30967;BME280;17649;51.836;8.330;2023-12-20T01:02:40;100782.25;;;7.22;100.00
30967;BME280;17649;51.836;8.330;2023-12-20T01:05:40;100781.72;;;7.35;100.00
30967;BME280;17649;51.836;8.330;2023-12-20T01:08:40;100779.44;;;7.28;100.00
30967;BME280;17649;51.836;8.330;2023-12-20T01:11:41;100780.50;;;7.22;100.00
30967;BME280;17649;51.836;8.330;2023-12-20T01:14:41;100782.91;;;7.27;100.00
30967;BME280;17649;51.836;8.330;2023-12-20T01:17:42;100787.94;;;7.30;100.00
30967;BME280;17649;51.836;8.330;2023-12-20T01:20:42;100786.00;;;7.13;100.00
30967;BME280;17649;51.836;8.330;2023-12-20T01:23:44;100790.56;;;7.28;100.00
30967;BME280;17649;51.836;8.330;2023-12-20T01:26:44;100793.81;;;7.33;100.00
30967;BME280;17649;51.836;8.330;2023-12-20T01:29:45;100784.94;;;7.40;100.00
30967;BME280;17649;51.836;8.330;2023-12-20T01:32:45;100788.19;;;7.45;100.00
30967;BME280;17649;51.836;8.330;2023-12-20T01:35:45;100785.69;;;7.44;100.00
30967;BME280;17649;51.836;8.330;2023-12-20T01:38:45;100789.75;;;7.50;100.00
30967;BME280;17649;51.836;8.330;2023-12-20T01:41:46;100791.28;;;7.54;100.00
30967;BME280;17649;51.836;8.330;2023-12-20T01:44:47;100788.41;;;7.39;100.00
30967;BME280;17649;51.836;8.330;2023-12-20T01:47:48;100785.31;;;7.31;100.00
30967;BME280;17649;51.836;8.330;2023-12-20T01:50:48;100797.44;;;7.28;100.00
30967;BME280;17649;51.836;8.330;2023-12-20T01:53:49;100812.56;;;7.13;100.00
30967;BME280;17649;51.836;8.330;2023-12-20T01:56:50;100809.91;;;7.16;100.00
30967;BME280;17649;51.836;8.330;2023-12-20T01:59:50;100805.03;;;7.09;100.00
30967;BME280;17649;51.836;8.330;2023-12-20T02:02:52;100803.81;;;6.96;100.00
30967;BME280;17649;51.836;8.330;2023-12-20T02:05:53;100805.47;;;6.97;100.00
30967;BME280;17649;51.836;8.330;2023-12-20T02:08:53;100811.31;;;7.02;100.00
30967;BME280;17649;51.836;8.330;2023-12-20T02:11:54;100797.69;;;6.98;100.00
30967;BME280;17649;51.836;8.330;2023-12-20T02:14:55;100796.16;;;6.94;100.00
30967;BME280;17649;51.836;8.330;2023-12-20T02:17:55;100791.56;;;6.79;100.00
30967;BME280;17649;51.836;8.330;2023-12-20T02:20:56;100795.75;;;6.81;100.00
30967;BME280;17649;51.836;8.330;2023-12-20T02:23:56;100779.50;;;6.57;100.00
30967;BME280;17649;51.836;8.330;2023-12-20T02:26:57;100782.13;;;6.56;100.00
30967;BME280;17649;51.836;8.330;2023-12-20T02:29:57;100784.19;;;6.46;100.00
30967;BME280;17649;51.836;8.330;2023-12-20T02:32:59;100779.03;;;6.46;100.00
30967;BME280;17649;51.836;8.330;2023-12-20T02:36:01;100774.84;;;6.44;100.00
30967;BME280;17649;51.836;8.330;2023-12-20T02:39:01;100782.97;;;6.56;100.00
30967;BME280;17649;51.836;8.330;2023-12-20T02:42:02;100794.03;;;6.58;100.00
30967;BME280;17649;51.836;8.330;2023-12-20T02:45:02;100772.94;;;6.49;100.00
30967;BME280;17649;51.836;8.330;2023-12-20T02:48:03;100775.06;;;6.38;100.00
30967;BME280;17649;51.836;8.330;2023-12-20T02:51:03;100767.50;;;6.33;100.00
30967;BME280;17649;51.836;8.330;2023-12-20T02:54:04;100777.13;;;6.28;100.00
30967;BME280;17649;51.836;8.330;2023-12-20T02:57:06;100769.00;;;6.15;100.00
30967;BME280;17649;51.836;8.330;2023-12-20T03:00:07;100772.56;;;6.11;100.00
30967;BME280;17649;51.836;8.330;2023-12-20T03:03:08;100766.38;;;6.17;100.00
30967;BME280;17649;51.836;8.330;2023-12-20T03:06:08;100781.13;;;6.12;100.00
30967;BME280;17649;51.836;8.330;2023-12-20T03:09:29;100777.06;;;6.30;100.00
30967;BME280;17649;51.836;8.330;2023-12-20T03:12:29;100779.16;;;6.43;100.00
30967;BME280;17649;51.836;8.330;2023-12-20T03:15:29;100773.19;;;6.43;100.00
30967;BME280;17649;51.836;8.330;2023-12-20T03:18:30;100770.00;;;6.60;100.00
30967;BME280;17649;51.836;8.330;2023-12-20T03:21:30;100773.59;;;6.55;100.00
30967;BME280;17649;51.836;8.330;2023-12-20T03:24:30;100772.44;;;6.63;100.00
30967;BME280;17649;51.836;8.330;2023-12-20T03:27:31;100771.72;;;6.59;100.00
30967;BME280;17649;51.836;8.330;2023-12-20T03:30:31;100782.69;;;6.87;100.00
30967;BME280;17649;51.836;8.330;2023-12-20T03:33:31;100778.66;;;6.80;100.00
30967;BME280;17649;51.836;8.330;2023-12-20T03:36:32;100773.94;;;6.68;100.00
30967;BME280;17649;51.836;8.330;2023-12-20T03:39:32;100768.66;;;6.73;100.00
30967;BME280;17649;51.836;8.330;2023-12-20T03:42:32;100776.28;;;6.51;100.00
30967;BME280;17649;51.836;8.330;2023-12-20T03:45:33;100768.81;;;6.68;100.00
30967;BME280;17649;51.836;8.330;2023-12-20T03:48:33;100768.72;;;6.71;100.00
30967;BME280;17649;51.836;8.330;2023-12-20T03:51:34;100760.38;;;6.65;100.00
30967;BME280;17649;51.836;8.330;2023-12-20T03:54:37;100752.72;;;6.63;100.00
30967;BME280;17649;51.836;8.330;2023-12-20T03:57:37;100754.00;;;6.51;100.00
30967;BME280;17649;51.836;8.330;2023-12-20T04:00:37;100750.72;;;6.48;100.00
30967;BME280;17649;51.836;8.330;2023-12-20T04:03:38;100748.38;;;6.42;100.00
30967;BME280;17649;51.836;8.330;2023-12-20T04:06:40;100765.81;;;6.57;100.00
30967;BME280;17649;51.836;8.330;2023-12-20T04:09:41;100757.53;;;6.49;100.00
30967;BME280;17649;51.836;8.330;2023-12-20T04:12:41;100755.94;;;6.68;100.00
30967;BME280;17649;51.836;8.330;2023-12-20T04:15:41;100747.13;;;6.52;100.00
30967;BME280;17649;51.836;8.330;2023-12-20T04:18:42;100742.88;;;6.51;100.00
30967;BME280;17649;51.836;8.330;2023-12-20T04:21:42;100741.25;;;6.48;100.00
30967;BME280;17649;51.836;8.330;2023-12-20T04:24:42;100744.00;;;6.44;100.00
30967;BME280;17649;51.836;8.330;2023-12-20T04:27:43;100743.66;;;6.53;100.00
30967;BME280;17649;51.836;8.330;2023-12-20T04:30:43;100742.50;;;6.62;100.00
30967;BME280;17649;51.836;8.330;2023-12-20T04:33:43;100740.31;;;6.51;100.00
30967;BME280;17649;51.836;8.330;2023-12-20T04:36:44;100738.63;;;6.50;100.00
30967;BME280;17649;51.836;8.330;2023-12-20T04:39:44;100744.66;;;6.49;100.00
30967;BME280;17649;51.836;8.330;2023-12-20T04:42:45;100756.44;;;6.56;100.00
30967;BME280;17649;51.836;8.330;2023-12-20T04:45:45;100747.53;;;6.65;100.00
30967;BME280;17649;51.836;8.330;2023-12-20T04:48:45;100749.56;;;6.56;100.00
30967;BME280;17649;51.836;8.330;2023-12-20T04:51:46;100746.69;;;6.41;100.00
30967;BME280;17649;51.836;8.330;2023-12-20T04:54:46;100750.28;;;6.60;100.00
30967;BME280;17649;51.836;8.330;2023-12-20T04:57:46;100746.88;;;6.60;100.00
30967;BME280;17649;51.836;8.330;2023-12-20T05:00:47;100736.28;;;6.44;100.00
30967;BME280;17649;51.836;8.330;2023-12-20T05:03:47;100747.75;;;6.58;100.00
30967;BME280;17649;51.836;8.330;2023-12-20T05:06:47;100747.34;;;6.46;100.00
30967;BME280;17649;51.836;8.330;2023-12-20T05:09:49;100743.50;;;6.57;100.00
30967;BME280;17649;51.836;8.330;2023-12-20T05:12:50;100736.53;;;6.61;100.00
30967;BME280;17649;51.836;8.330;2023-12-20T05:15:51;100745.72;;;6.67;100.00
30967;BME280;17649;51.836;8.330;2023-12-20T05:18:51;100743.56;;;6.56;100.00
30967;BME280;17649;51.836;8.330;2023-12-20T05:21:52;100733.44;;;6.51;100.00
30967;BME280;17649;51.836;8.330;2023-12-20T05:24:53;100745.00;;;6.63;100.00
30967;BME280;17649;51.836;8.330;2023-12-20T05:27:53;100740.81;;;6.61;100.00
30967;BME280;17649;51.836;8.330;2023-12-20T05:30:54;100732.88;;;6.43;100.00
30967;BME280;17649;51.836;8.330;2023-12-20T05:33:54;100734.63;;;6.43;100.00
30967;BME280;17649;51.836;8.330;2023-12-20T05:36:54;100731.94;;;6.46;100.00
30967;BME280;17649;51.836;8.330;2023-12-20T05:39:54;100719.63;;;6.31;100.00
30967;BME280;17649;51.836;8.330;2023-12-20T05:42:55;100723.66;;;6.38;100.00
30967;BME280;17649;51.836;8.330;2023-12-20T05:45:55;100734.44;;;6.47;100.00
30967;BME280;17649;51.836;8.330;2023-12-20T05:48:55;100736.56;;;6.36;100.00
30967;BME280;17649;51.836;8.330;2023-12-20T05:51:56;100731.53;;;6.33;100.00
30967;BME280;17649;51.836;8.330;2023-12-20T05:54:56;100740.03;;;6.35;100.00
30967;BME280;17649;51.836;8.330;2023-12-20T05:57:58;100741.31;;;6.47;100.00
30967;BME280;17649;51.836;8.330;2023-12-20T06:00:58;100738.97;;;6.64;100.00
30967;BME280;17649;51.836;8.330;2023-12-20T06:03:58;100737.59;;;6.55;100.00
30967;BME280;17649;51.836;8.330;2023-12-20T06:06:59;100746.09;;;6.57;100.00
30967;BME280;17649;51.836;8.330;2023-12-20T06:10:00;100752.63;;;6.43;100.00
30967;BME280;17649;51.836;8.330;2023-12-20T06:13:00;100749.03;;;6.47;100.00
30967;BME280;17649;51.836;8.330;2023-12-20T06:16:01;100743.38;;;6.37;100.00
30967;BME280;17649;51.836;8.330;2023-12-20T06:19:01;100749.88;;;6.22;100.00
30967;BME280;17649;51.836;8.330;2023-12-20T06:22:01;100758.06;;;6.34;100.00
30967;BME280;17649;51.836;8.330;2023-12-20T06:25:02;100748.44;;;6.40;100.00
30967;BME280;17649;51.836;8.330;2023-12-20T06:28:03;100741.59;;;6.39;100.00
30967;BME280;17649;51.836;8.330;2023-12-20T06:31:03;100743.91;;;6.22;100.00
30967;BME280;17649;51.836;8.330;2023-12-20T06:34:04;100752.50;;;6.46;100.00
30967;BME280;17649;51.836;8.330;2023-12-20T06:37:04;100742.66;;;6.34;100.00
30967;BME280;17649;51.836;8.330;2023-12-20T06:40:05;100736.50;;;6.38;100.00
30967;BME280;17649;51.836;8.330;2023-12-20T06:43:06;100742.38;;;6.41;100.00
30967;BME280;17649;51.836;8.330;2023-12-20T06:46:07;100747.34;;;6.46;100.00
30967;BME280;17649;51.836;8.330;2023-12-20T06:49:07;100734.56;;;6.44;100.00
30967;BME280;17649;51.836;8.330;2023-12-20T06:52:07;100735.59;;;6.39;100.00
30967;BME280;17649;51.836;8.330;2023-12-20T06:55:08;100733.56;;;6.48;100.00
30967;BME280;17649;51.836;8.330;2023-12-20T06:58:09;100732.94;;;6.42;100.00
30967;BME280;17649;51.836;8.330;2023-12-20T07:01:13;100745.56;;;6.48;100.00
30967;BME280;17649;51.836;8.330;2023-12-20T07:04:15;100723.50;;;6.42;100.00
30967;BME280;17649;51.836;8.330;2023-12-20T07:07:15;100735.94;;;6.53;100.00
30967;BME280;17649;51.836;8.330;2023-12-20T07:10:16;100730.03;;;6.51;100.00
30967;BME280;17649;51.836;8.330;2023-12-20T07:13:16;100740.88;;;6.59;100.00
30967;BME280;17649;51.836;8.330;2023-12-20T07:16:16;100749.66;;;6.77;100.00
30967;BME280;17649;51.836;8.330;2023-12-20T07:19:17;100750.03;;;6.66;100.00
30967;BME280;17649;51.836;8.330;2023-12-20T07:22:17;100744.13;;;6.64;100.00
30967;BME280;17649;51.836;8.330;2023-12-20T07:25:17;100740.16;;;6.55;100.00
30967;BME280;17649;51.836;8.330;2023-12-20T07:28:18;100741.78;;;6.58;100.00
30967;BME280;17649;51.836;8.330;2023-12-20T07:31:18;100726.88;;;6.66;100.00
30967;BME280;17649;51.836;8.330;2023-12-20T07:34:19;100729.75;;;6.58;100.00
30967;BME280;17649;51.836;8.330;2023-12-20T07:37:20;100740.44;;;6.71;100.00
30967;BME280;17649;51.836;8.330;2023-12-20T07:40:21;100732.88;;;6.43;100.00
30967;BME280;17649;51.836;8.330;2023-12-20T07:43:21;100734.00;;;6.60;100.00
30967;BME280;17649;51.836;8.330;2023-12-20T07:46:21;100728.16;;;6.78;100.00
30967;BME280;17649;51.836;8.330;2023-12-20T07:49:24;100734.41;;;6.72;100.00
30967;BME280;17649;51.836;8.330;2023-12-20T07:52:26;100720.19;;;6.85;100.00
30967;BME280;17649;51.836;8.330;2023-12-20T07:55:26;100733.94;;;6.84;100.00
30967;BME280;17649;51.836;8.330;2023-12-20T07:58:27;100743.09;;;6.92;100.00
30967;BME280;17649;51.836;8.330;2023-12-20T08:01:27;100740.06;;;7.04;100.00
30967;BME280;17649;51.836;8.330;2023-12-20T08:04:27;100740.34;;;6.96;100.00
30967;BME280;17649;51.836;8.330;2023-12-20T08:07:28;100744.22;;;6.84;100.00
30967;BME280;17649;51.836;8.330;2023-12-20T08:10:28;100743.91;;;6.92;100.00
30967;BME280;17649;51.836;8.330;2023-12-20T08:13:30;100756.78;;;6.92;100.00
30967;BME280;17649;51.836;8.330;2023-12-20T08:16:30;100740.97;;;6.79;100.00
30967;BME280;17649;51.836;8.330;2023-12-20T08:19:30;100735.50;;;6.88;100.00
30967;BME280;17649;51.836;8.330;2023-12-20T08:22:31;100741.03;;;6.78;100.00
30967;BME280;17649;51.836;8.330;2023-12-20T08:25:31;100724.69;;;6.79;100.00
30967;BME280;17649;51.836;8.330;2023-12-20T08:28:32;100741.34;;;6.70;100.00
30967;BME280;17649;51.836;8.330;2023-12-20T08:31:32;100725.41;;;6.82;100.00
30967;BME280;17649;51.836;8.330;2023-12-20T08:34:32;100724.38;;;6.88;100.00
30967;BME280;17649;51.836;8.330;2023-12-20T08:37:33;100723.47;;;6.89;100.00
30967;BME280;17649;51.836;8.330;2023-12-20T08:40:33;100713.72;;;6.97;100.00
30967;BME280;17649;51.836;8.330;2023-12-20T08:43:34;100722.63;;;6.88;100.00
30967;BME280;17649;51.836;8.330;2023-12-20T08:46:35;100717.84;;;7.01;100.00
30967;BME280;17649;51.836;8.330;2023-12-20T08:49:35;100712.88;;;6.97;100.00
30967;BME280;17649;51.836;8.330;2023-12-20T08:52:36;100708.50;;;6.99;100.00
30967;BME280;17649;51.836;8.330;2023-12-20T08:55:36;100720.06;;;6.88;100.00
30967;BME280;17649;51.836;8.330;2023-12-20T08:58:36;100710.13;;;7.01;100.00
30967;BME280;17649;51.836;8.330;2023-12-20T09:01:37;100710.13;;;7.01;100.00
30967;BME280;17649;51.836;8.330;2023-12-20T09:04:37;100711.63;;;7.07;100.00
30967;BME280;17649;51.836;8.330;2023-12-20T09:07:38;100711.75;;;7.04;100.00
30967;BME280;17649;51.836;8.330;2023-12-20T09:10:38;100704.31;;;6.96;100.00
30967;BME280;17649;51.836;8.330;2023-12-20T09:13:38;100703.06;;;6.84;100.00
30967;BME280;17649;51.836;8.330;2023-12-20T09:16:39;100698.78;;;6.83;100.00
30967;BME280;17649;51.836;8.330;2023-12-20T09:19:40;100696.34;;;6.80;100.00
30967;BME280;17649;51.836;8.330;2023-12-20T09:22:40;100689.44;;;7.04;100.00
30967;BME280;17649;51.836;8.330;2023-12-20T09:25:42;100694.56;;;6.82;100.00
30967;BME280;17649;51.836;8.330;2023-12-20T09:28:42;100682.00;;;6.75;100.00
30967;BME280;17649;51.836;8.330;2023-12-20T09:31:45;100683.13;;;6.68;100.00
30967;BME280;17649;51.836;8.330;2023-12-20T09:34:47;100686.84;;;6.82;100.00
30967;BME280;17649;51.836;8.330;2023-12-20T09:37:48;100668.22;;;6.98;100.00
30967;BME280;17649;51.836;8.330;2023-12-20T09:40:48;100655.09;;;7.05;100.00
30967;BME280;17649;51.836;8.330;2023-12-20T09:43:50;100659.75;;;6.96;100.00
30967;BME280;17649;51.836;8.330;2023-12-20T09:46:52;100668.50;;;6.92;100.00
30967;BME280;17649;51.836;8.330;2023-12-20T09:49:54;100667.16;;;6.81;100.00
30967;BME280;17649;51.836;8.330;2023-12-20T09:52:57;100662.09;;;7.02;100.00
30967;BME280;17649;51.836;8.330;2023-12-20T09:55:59;100661.41;;;6.97;100.00
30967;BME280;17649;51.836;8.330;2023-12-20T09:59:02;100660.28;;;6.82;100.00
30967;BME280;17649;51.836;8.330;2023-12-20T10:02:05;100660.13;;;6.86;100.00
30967;BME280;17649;51.836;8.330;2023-12-20T10:05:16;100667.91;;;6.85;100.00
30967;BME280;17649;51.836;8.330;2023-12-20T10:08:16;100664.25;;;6.91;100.00
30967;BME280;17649;51.836;8.330;2023-12-20T10:11:17;100667.06;;;6.84;100.00
30967;BME280;17649;51.836;8.330;2023-12-20T10:14:17;100662.38;;;6.72;100.00
30967;BME280;17649;51.836;8.330;2023-12-20T10:17:18;100664.91;;;6.74;100.00
30967;BME280;17649;51.836;8.330;2023-12-20T10:20:19;100655.69;;;6.90;100.00
30967;BME280;17649;51.836;8.330;2023-12-20T10:23:19;100652.56;;;6.82;100.00
30967;BME280;17649;51.836;8.330;2023-12-20T10:26:24;100656.03;;;6.81;100.00
30967;BME280;17649;51.836;8.330;2023-12-20T10:29:25;100639.47;;;6.88;100.00
30967;BME280;17649;51.836;8.330;2023-12-20T10:32:26;100643.63;;;6.70;100.00
30967;BME280;17649;51.836;8.330;2023-12-20T10:35:27;100636.41;;;6.78;100.00
30967;BME280;17649;51.836;8.330;2023-12-20T10:38:27;100639.41;;;6.68;100.00
30967;BME280;17649;51.836;8.330;2023-12-20T10:41:31;100635.47;;;6.81;100.00
30967;BME280;17649;51.836;8.330;2023-12-20T10:44:32;100631.69;;;6.90;100.00
30967;BME280;17649;51.836;8.330;2023-12-20T10:47:33;100647.66;;;6.98;100.00
30967;BME280;17649;51.836;8.330;2023-12-20T10:50:36;100639.03;;;6.99;100.00
30967;BME280;17649;51.836;8.330;2023-12-20T10:53:38;100619.69;;;6.90;100.00
30967;BME280;17649;51.836;8.330;2023-12-20T10:56:40;100629.34;;;7.05;100.00
30967;BME280;17649;51.836;8.330;2023-12-20T10:59:41;100629.31;;;6.85;100.00
30967;BME280;17649;51.836;8.330;2023-12-20T11:02:43;100625.41;;;6.97;100.00
30967;BME280;17649;51.836;8.330;2023-12-20T11:26:06;100644.91;;;7.02;100.00
30967;BME280;17649;51.836;8.330;2023-12-20T11:29:32;100644.59;;;7.10;100.00
30967;BME280;17649;51.836;8.330;2023-12-20T11:32:34;100595.72;;;7.10;100.00
30967;BME280;17649;51.836;8.330;2023-12-20T11:35:35;100618.78;;;7.33;100.00
30967;BME280;17649;51.836;8.330;2023-12-20T11:38:36;100620.63;;;7.50;100.00
30967;BME280;17649;51.836;8.330;2023-12-20T11:41:37;100611.69;;;7.38;100.00
30967;BME280;17649;51.836;8.330;2023-12-20T11:44:38;100589.56;;;7.34;100.00
30967;BME280;17649;51.836;8.330;2023-12-20T11:47:38;100593.53;;;7.21;100.00
30967;BME280;17649;51.836;8.330;2023-12-20T11:50:39;100598.06;;;7.16;100.00
30967;BME280;17649;51.836;8.330;2023-12-20T11:53:40;100584.59;;;7.09;100.00
30967;BME280;17649;51.836;8.330;2023-12-20T11:56:42;100581.81;;;7.14;100.00
30967;BME280;17649;51.836;8.330;2023-12-20T11:59:42;100574.94;;;7.35;100.00
30967;BME280;17649;51.836;8.330;2023-12-20T12:02:43;100571.00;;;7.26;100.00
30967;BME280;17649;51.836;8.330;2023-12-20T12:05:47;100565.28;;;7.40;100.00
30967;BME280;17649;51.836;8.330;2023-12-20T12:08:47;100562.31;;;7.49;100.00
30967;BME280;17649;51.836;8.330;2023-12-20T12:11:47;100590.44;;;7.54;100.00
30967;BME280;17649;51.836;8.330;2023-12-20T12:14:49;100559.28;;;7.60;100.00
30967;BME280;17649;51.836;8.330;2023-12-20T12:17:56;100558.34;;;7.81;100.00
30967;BME280;17649;51.836;8.330;2023-12-20T12:21:02;100549.78;;;7.99;100.00
30967;BME280;17649;51.836;8.330;2023-12-20T12:24:07;100558.59;;;8.31;100.00
30967;BME280;17649;51.836;8.330;2023-12-20T12:27:08;100552.97;;;8.23;100.00
30967;BME280;17649;51.836;8.330;2023-12-20T12:30:09;100543.50;;;7.86;100.00
30967;BME280;17649;51.836;8.330;2023-12-20T12:33:10;100522.53;;;8.13;100.00
30967;BME280;17649;51.836;8.330;2023-12-20T12:36:12;100526.38;;;8.23;100.00
30967;BME280;17649;51.836;8.330;2023-12-20T12:39:12;100540.66;;;8.11;100.00
30967;BME280;17649;51.836;8.330;2023-12-20T12:42:15;100534.81;;;8.07;100.00
30967;BME280;17649;51.836;8.330;2023-12-20T12:45:16;100536.47;;;8.08;100.00
30967;BME280;17649;51.836;8.330;2023-12-20T12:48:16;100529.09;;;8.01;100.00
30967;BME280;17649;51.836;8.330;2023-12-20T12:51:16;100530.34;;;8.11;100.00
30967;BME280;17649;51.836;8.330;2023-12-20T12:54:17;100538.84;;;8.13;100.00
30967;BME280;17649;51.836;8.330;2023-12-20T12:57:18;100534.16;;;7.84;100.00
30967;BME280;17649;51.836;8.330;2023-12-20T13:00:19;100537.09;;;8.14;100.00
30967;BME280;17649;51.836;8.330;2023-12-20T13:03:20;100521.28;;;8.21;100.00
30967;BME280;17649;51.836;8.330;2023-12-20T13:06:20;100524.69;;;8.22;100.00
30967;BME280;17649;51.836;8.330;2023-12-20T13:09:21;100513.13;;;8.12;100.00
30967;BME280;17649;51.836;8.330;2023-12-20T13:12:21;100504.56;;;8.11;100.00
30967;BME280;17649;51.836;8.330;2023-12-20T13:15:21;100523.72;;;8.24;100.00
30967;BME280;17649;51.836;8.330;2023-12-20T13:18:22;100507.66;;;8.19;100.00
30967;BME280;17649;51.836;8.330;2023-12-20T13:21:22;100511.34;;;8.31;100.00
30967;BME280;17649;51.836;8.330;2023-12-20T13:24:23;100503.75;;;8.11;100.00
30967;BME280;17649;51.836;8.330;2023-12-20T13:27:25;100500.66;;;8.02;100.00
30967;BME280;17649;51.836;8.330;2023-12-20T13:30:25;100498.81;;;8.06;100.00
30967;BME280;17649;51.836;8.330;2023-12-20T13:33:25;100498.38;;;8.34;100.00
30967;BME280;17649;51.836;8.330;2023-12-20T13:36:26;100499.34;;;8.13;100.00
30967;BME280;17649;51.836;8.330;2023-12-20T13:39:26;100492.94;;;8.02;100.00
30967;BME280;17649;51.836;8.330;2023-12-20T13:42:26;100482.94;;;7.96;100.00
30967;BME280;17649;51.836;8.330;2023-12-20T13:45:27;100484.81;;;7.93;100.00
30967;BME280;17649;51.836;8.330;2023-12-20T13:48:27;100494.28;;;7.92;100.00
30967;BME280;17649;51.836;8.330;2023-12-20T13:51:28;100508.41;;;7.84;100.00
30967;BME280;17649;51.836;8.330;2023-12-20T13:54:28;100507.66;;;7.82;100.00
30967;BME280;17649;51.836;8.330;2023-12-20T13:57:29;100495.81;;;7.96;100.00
30967;BME280;17649;51.836;8.330;2023-12-20T14:00:29;100494.91;;;7.78;100.00
30967;BME280;17649;51.836;8.330;2023-12-20T14:03:30;100502.56;;;7.80;100.00
30967;BME280;17649;51.836;8.330;2023-12-20T14:06:31;100486.44;;;7.76;100.00
30967;BME280;17649;51.836;8.330;2023-12-20T14:09:32;100480.31;;;7.60;100.00
30967;BME280;17649;51.836;8.330;2023-12-20T14:12:33;100487.94;;;7.62;100.00
30967;BME280;17649;51.836;8.330;2023-12-20T14:15:36;100485.38;;;7.62;100.00
30967;BME280;17649;51.836;8.330;2023-12-20T14:18:37;100503.19;;;7.66;100.00
30967;BME280;17649;51.836;8.330;2023-12-20T14:21:37;100479.88;;;7.69;100.00
30967;BME280;17649;51.836;8.330;2023-12-20T14:24:37;100475.06;;;7.81;100.00
30967;BME280;17649;51.836;8.330;2023-12-20T14:27:39;100474.09;;;7.83;100.00
30967;BME280;17649;51.836;8.330;2023-12-20T14:30:40;100450.56;;;7.72;100.00
30967;BME280;17649;51.836;8.330;2023-12-20T14:33:40;100461.13;;;7.85;100.00
30967;BME280;17649;51.836;8.330;2023-12-20T14:36:42;100459.47;;;7.84;100.00
30967;BME280;17649;51.836;8.330;2023-12-20T14:39:42;100446.94;;;7.95;100.00
30967;BME280;17649;51.836;8.330;2023-12-20T14:42:45;100459.97;;;7.92;100.00
30967;BME280;17649;51.836;8.330;2023-12-20T14:45:46;100481.25;;;7.95;100.00
30967;BME280;17649;51.836;8.330;2023-12-20T14:48:46;100470.94;;;7.95;100.00
30967;BME280;17649;51.836;8.330;2023-12-20T14:51:48;100473.13;;;8.04;100.00
30967;BME280;17649;51.836;8.330;2023-12-20T14:54:49;100485.34;;;7.99;100.00
30967;BME280;17649;51.836;8.330;2023-12-20T14:57:49;100471.16;;;8.10;100.00
30967;BME280;17649;51.836;8.330;2023-12-20T15:00:49;100469.91;;;7.99;100.00
30967;BME280;17649;51.836;8.330;2023-12-20T15:03:50;100447.84;;;7.94;100.00
30967;BME280;17649;51.836;8.330;2023-12-20T15:06:50;100481.03;;;8.00;100.00
30967;BME280;17649;51.836;8.330;2023-12-20T15:09:50;100474.97;;;8.01;100.00
30967;BME280;17649;51.836;8.330;2023-12-20T15:12:51;100466.03;;;7.91;100.00
30967;BME280;17649;51.836;8.330;2023-12-20T15:15:51;100472.84;;;7.92;100.00
30967;BME280;17649;51.836;8.330;2023-12-20T15:18:52;100473.69;;;7.92;100.00
30967;BME280;17649;51.836;8.330;2023-12-20T15:21:53;100464.28;;;7.91;100.00
30967;BME280;17649;51.836;8.330;2023-12-20T15:24:54;100453.78;;;7.77;100.00
30967;BME280;17649;51.836;8.330;2023-12-20T15:27:55;100470.22;;;7.74;100.00
30967;BME280;17649;51.836;8.330;2023-12-20T15:30:55;100459.84;;;7.76;100.00
30967;BME280;17649;51.836;8.330;2023-12-20T15:33:56;100455.94;;;7.48;100.00
30967;BME280;17649;51.836;8.330;2023-12-20T15:36:57;100459.28;;;7.51;100.00
30967;BME280;17649;51.836;8.330;2023-12-20T15:39:57;100454.59;;;7.40;100.00
30967;BME280;17649;51.836;8.330;2023-12-20T15:42:58;100464.34;;;7.52;100.00
30967;BME280;17649;51.836;8.330;2023-12-20T15:45:59;100455.38;;;7.61;100.00
30967;BME280;17649;51.836;8.330;2023-12-20T15:49:00;100451.69;;;7.47;100.00
30967;BME280;17649;51.836;8.330;2023-12-20T15:52:00;100462.25;;;7.41;100.00
30967;BME280;17649;51.836;8.330;2023-12-20T15:55:01;100456.00;;;7.47;100.00
30967;BME280;17649;51.836;8.330;2023-12-20T15:58:01;100453.34;;;7.30;100.00
30967;BME280;17649;51.836;8.330;2023-12-20T16:01:02;100451.69;;;7.47;100.00
30967;BME280;17649;51.836;8.330;2023-12-20T16:04:03;100450.13;;;7.43;100.00
30967;BME280;17649;51.836;8.330;2023-12-20T16:07:03;100451.75;;;7.46;100.00